Nearby METAR Reports

 

NZAA - Auckland Intl Ar, New Zealand
Distance from station: SW 18km
Updated: 06/08/2020 10:00
Mostly cloudy
Mostly cloudy
 Wind from NE
Wind: NE 15 km/h
Temperature: 14°C
Dew Point: 12°C
Humidity: 88%
Barometer: 1020 hPa
Clouds: Mostly cloudy
Visibility: 10 km
Cloud details: Mostly cloudy 1280 m
2020/08/05 22:00 NZAA 052200Z AUTO 05008KT 9999 BKN042/// 14/12 Q1020 NOSIG
NZWN - Wellington Intl, New Zealand
Distance from station: S 493km
Updated: 06/08/2020 10:00
Overcast
Overcast
 Wind from N
Wind: N 15 km/h
Temperature: 12°C
Dew Point: 10°C
Humidity: 88%
Barometer: 1019 hPa
Clouds: Overcast
Visibility: 10 km
Cloud details: Overcast 335 m
2020/08/05 22:00 NZWN 052200Z AUTO 01008KT 9999 OVC011/// 12/10 Q1019 BECMG FM2300 36018KT
 
NZCH - Christchurch Int, New Zealand
Distance from station: SSW 759km
Updated: 06/08/2020 10:00
Overcast
Overcast
 Wind from ENE
Wind: ENE 22 km/h
Temperature: 9°C
Wind Chill: 6°C
Dew Point: 8°C
Humidity: 94%
Barometer: 1014 hPa
Clouds: Overcast
Visibility: 10 km
Cloud details: Overcast 213 m
2020/08/05 22:00 NZCH 052200Z AUTO 07012KT 9999 OVC007/// 09/08 Q1014 BECMG FM2300 SCT012
YSNF - Norfolk Island A, Australia
Distance from station: NW 1091km
Updated: 06/08/2020 10:00
Mostly cloudy
Mostly cloudy
 Wind from NW
Wind: NW 9 km/h
Temperature: 18°C
Dew Point: 16°C
Humidity: 88%
Barometer: 1018 hPa
Clouds: Mostly cloudy
Visibility: 10 km
Cloud details: Mostly cloudy 1951 m
2020/08/05 22:00 YSNF 052200Z AUTO 31005KT 9999 // BKN064 18/16 Q1018